Time;durP1;ratioP1;P1;durP2;ratioP2;P2;SDS_P1;SDS_P2;PMS_P1;PMS_P2;Temp;Humidity;BMP_temperature;BMP_pressure;BME280_temperature;BME280_humidity;BME280_pressure;Samples;Min_cycle;Max_cycle;Signal;HPM_P1;HPM_P2
2023/07/25 00:00:36;;;;;;;18.27;8.13;;;;;;;21.42;64.68;94331.91;5067945;28;20292;-75
2023/07/25 00:03:03;;;;;;;17.98;7.78;;;;;;;21.31;67.20;94322.16;5067782;28;20586;-75
2023/07/25 00:05:30;;;;;;;13.95;7.72;;;;;;;21.28;65.82;94332.00;5067817;28;20203;-75
2023/07/25 00:07:57;;;;;;;13.60;7.55;;;;;;;21.25;68.02;94333.59;5067573;28;20203;-76
2023/07/25 00:10:23;;;;;;;16.63;8.07;;;;;;;21.19;67.69;94335.19;5067754;28;20195;-76
2023/07/25 00:12:52;;;;;;;13.43;6.57;;;;;;;21.18;67.68;94341.84;5070944;28;20259;-76
2023/07/25 00:15:21;;;;;;;19.98;8.25;;;;;;;21.02;69.23;94341.56;5069916;28;20195;-76
2023/07/25 00:17:48;;;;;;;13.15;7.28;;;;;;;20.87;70.05;94345.56;5067318;28;20195;-76
2023/07/25 00:20:14;;;;;;;17.52;7.53;;;;;;;20.93;69.63;94332.94;5067455;28;20226;-76
2023/07/25 00:22:41;;;;;;;17.15;8.68;;;;;;;20.89;69.12;94326.66;5067699;28;20655;-76
2023/07/25 00:25:09;;;;;;;15.13;7.30;;;;;;;21.03;68.09;94323.06;5067572;28;20257;-76
2023/07/25 00:27:36;;;;;;;17.20;7.90;;;;;;;21.02;68.87;94325.03;5067452;28;20237;-75
2023/07/25 00:30:04;;;;;;;17.60;8.38;;;;;;;21.05;68.66;94328.94;5071422;28;20256;-76
2023/07/25 00:32:34;;;;;;;15.63;7.50;;;;;;;21.12;68.96;94317.88;5067479;28;20223;-76
2023/07/25 00:35:01;;;;;;;15.75;7.93;;;;;;;21.07;67.60;94315.53;5068159;28;20199;-76
2023/07/25 00:37:29;;;;;;;15.55;7.05;;;;;;;21.10;68.55;94301.75;5067762;28;20207;-75
2023/07/25 00:39:56;;;;;;;19.20;10.82;;;;;;;21.28;67.53;94316.25;5068260;28;20215;-75
2023/07/25 00:42:23;;;;;;;13.98;7.53;;;;;;;21.23;67.89;94308.41;5068082;28;20203;-76
2023/07/25 00:44:50;;;;;;;22.50;7.85;;;;;;;21.15;67.61;94309.63;5067879;28;20199;-75
2023/07/25 00:47:18;;;;;;;21.27;10.60;;;;;;;21.13;67.78;94309.22;5066041;28;20245;-76
2023/07/25 00:49:46;;;;;;;16.55;7.63;;;;;;;21.15;68.59;94311.59;5068564;28;20201;-76
2023/07/25 00:52:13;;;;;;;15.82;7.68;;;;;;;21.07;68.92;94310.81;5068128;28;20203;-76
2023/07/25 00:54:45;;;;;;;15.02;8.00;;;;;;;21.07;68.77;94302.56;5067893;28;20210;-76
2023/07/25 00:57:13;;;;;;;17.48;7.57;;;;;;;21.04;69.32;94305.34;5068131;28;20195;-76
2023/07/25 00:59:40;;;;;;;15.77;8.57;;;;;;;20.86;69.97;94308.19;5068063;28;20242;-76
2023/07/25 01:02:06;;;;;;;14.77;7.55;;;;;;;20.89;69.30;94304.66;5068807;28;20226;-76
2023/07/25 01:04:33;;;;;;;15.27;8.27;;;;;;;20.87;69.70;94296.78;5069768;28;20562;-76
2023/07/25 01:07:02;;;;;;;18.48;7.55;;;;;;;20.90;69.70;94295.19;5071929;28;20195;-75
2023/07/25 01:09:37;;;;;;;13.70;7.13;;;;;;;20.85;69.15;94287.34;5071396;28;20209;-76
2023/07/25 01:12:05;;;;;;;14.02;7.38;;;;;;;20.89;68.97;94288.91;5071263;28;20209;-76
2023/07/25 01:14:33;;;;;;;14.73;7.97;;;;;;;20.85;69.42;94293.63;5071516;28;20615;-76
2023/07/25 01:17:02;;;;;;;14.55;7.40;;;;;;;20.76;70.06;94300.78;5072079;28;20262;-76
2023/07/25 01:19:30;;;;;;;19.95;7.80;;;;;;;20.83;68.71;94306.22;5072120;28;20540;-76
2023/07/25 01:21:58;;;;;;;13.85;6.75;;;;;;;20.83;69.93;94301.50;5071494;28;20206;-76
2023/07/25 01:24:27;;;;;;;16.88;7.97;;;;;;;20.83;69.66;94306.22;5071391;28;20206;-76
2023/07/25 01:26:54;;;;;;;14.63;7.57;;;;;;;20.81;70.37;94305.84;5071863;28;20207;-76
2023/07/25 01:29:20;;;;;;;14.45;6.95;;;;;;;20.75;70.27;94299.19;5071719;28;20207;-76
2023/07/25 01:31:47;;;;;;;15.63;6.65;;;;;;;20.74;69.42;94303.94;5071082;28;20606;-76
2023/07/25 01:34:14;;;;;;;14.13;6.78;;;;;;;20.72;70.07;94294.50;5071160;28;20298;-76
2023/07/25 01:36:41;;;;;;;17.15;7.13;;;;;;;20.51;71.90;94287.88;5071619;28;20199;-76
2023/07/25 01:39:08;;;;;;;17.20;7.28;;;;;;;20.47;72.39;94289.88;5071204;28;20233;-76
2023/07/25 01:41:36;;;;;;;16.63;6.30;;;;;;;20.52;72.41;94288.66;5071094;28;20226;-76
2023/07/25 01:44:03;;;;;;;14.52;7.07;;;;;;;20.50;71.52;94283.56;5070897;28;20207;-76
2023/07/25 01:46:30;;;;;;;13.48;6.82;;;;;;;20.50;71.64;94283.56;5071403;28;20281;-76
2023/07/25 01:48:57;;;;;;;16.15;7.50;;;;;;;20.54;70.98;94289.84;5070859;28;20199;-76
2023/07/25 01:51:24;;;;;;;15.82;6.95;;;;;;;20.38;71.63;94289.50;5071040;28;20199;-76
2023/07/25 01:53:53;;;;;;;14.00;6.40;;;;;;;20.28;71.35;94290.28;5070576;28;20198;-76
2023/07/25 01:56:20;;;;;;;13.60;7.57;;;;;;;20.24;71.37;94297.75;5070560;28;20199;-76
2023/07/25 01:58:48;;;;;;;14.10;7.15;;;;;;;20.32;73.20;94293.81;5070465;28;20210;-76
2023/07/25 02:01:14;;;;;;;16.73;7.05;;;;;;;20.31;73.51;94302.47;5073231;28;20234;-76
2023/07/25 02:03:41;;;;;;;14.13;6.95;;;;;;;20.29;73.55;94311.13;5070858;28;20613;-76
2023/07/25 02:06:07;;;;;;;15.00;7.93;;;;;;;20.06;74.18;94302.53;5070691;28;20202;-76
2023/07/25 02:08:34;;;;;;;16.92;7.88;;;;;;;19.78;75.73;94309.66;5070450;28;20202;-76
2023/07/25 02:11:01;;;;;;;15.00;7.55;;;;;;;19.63;76.44;94319.06;5071732;28;20205;-76
2023/07/25 02:13:28;;;;;;;16.83;7.93;;;;;;;19.71;75.76;94325.34;5081985;28;20195;-76
2023/07/25 02:15:56;;;;;;;15.15;7.20;;;;;;;19.84;74.91;94321.00;5071909;28;20203;-76
2023/07/25 02:18:23;;;;;;;17.95;7.00;;;;;;;19.85;74.12;94319.84;5082016;28;20206;-76
2023/07/25 02:20:50;;;;;;;15.63;6.97;;;;;;;19.93;74.08;94323.38;5083844;28;20236;-76
2023/07/25 02:23:17;;;;;;;13.05;6.72;;;;;;;19.99;73.61;94330.03;5070564;28;20286;-76
2023/07/25 02:25:45;;;;;;;14.32;7.30;;;;;;;19.91;73.66;94328.47;5070345;28;20264;-75
2023/07/25 02:28:12;;;;;;;15.63;7.57;;;;;;;19.93;73.63;94328.88;5069958;28;20684;-76
2023/07/25 02:30:39;;;;;;;15.88;7.18;;;;;;;19.92;73.52;94332.81;5070138;28;20199;-75
2023/07/25 02:33:07;;;;;;;14.10;6.93;;;;;;;19.97;73.61;94340.63;5069553;28;20230;-75
2023/07/25 02:35:34;;;;;;;17.77;7.57;;;;;;;19.85;73.86;94342.59;5070213;28;20230;-75
2023/07/25 02:38:00;;;;;;;17.85;7.45;;;;;;;19.81;74.19;94341.84;5070320;28;20199;-76
2023/07/25 02:40:27;;;;;;;15.45;7.28;;;;;;;19.85;73.99;94348.09;5083538;28;20287;-74
2023/07/25 02:42:54;;;;;;;14.38;7.45;;;;;;;19.78;73.87;94345.38;5069773;28;20217;-75
2023/07/25 02:45:21;;;;;;;13.50;7.10;;;;;;;19.84;73.41;94341.03;5070115;28;20202;-76
2023/07/25 02:47:48;;;;;;;15.55;7.18;;;;;;;19.95;75.04;94340.25;5081807;28;20203;-76
2023/07/25 02:50:16;;;;;;;12.07;6.45;;;;;;;19.82;75.04;94343.38;5090108;28;20206;-76
2023/07/25 02:52:43;;;;;;;14.57;7.57;;;;;;;19.77;75.54;94335.56;5075997;28;20245;-76
2023/07/25 02:55:10;;;;;;;14.65;7.63;;;;;;;19.74;75.05;94335.56;5069673;28;20207;-75
2023/07/25 02:57:36;;;;;;;13.60;6.75;;;;;;;19.68;74.98;94326.91;5069652;28;20390;-75
2023/07/25 03:00:06;;;;;;;15.45;7.30;;;;;;;19.60;74.65;94338.28;5082973;28;20203;-75
2023/07/25 03:02:32;;;;;;;13.60;6.97;;;;;;;19.70;74.57;94324.53;5069759;28;20293;-75
2023/07/25 03:04:59;;;;;;;13.85;7.22;;;;;;;19.69;75.75;94328.47;5082612;28;20203;-75
2023/07/25 03:07:27;;;;;;;11.88;6.22;;;;;;;19.62;75.83;94336.72;5069724;28;20198;-75
2023/07/25 03:09:54;;;;;;;12.68;6.82;;;;;;;19.63;75.73;94332.81;5069577;28;20217;-77
2023/07/25 03:12:21;;;;;;;14.75;7.85;;;;;;;19.56;76.30;94335.53;5069259;28;20267;-75
2023/07/25 03:14:48;;;;;;;11.95;7.30;;;;;;;19.43;77.25;94334.31;5068796;28;20282;-75
2023/07/25 03:17:15;;;;;;;17.58;8.30;;;;;;;19.43;77.59;94332.34;5082050;28;20216;-75
2023/07/25 03:19:42;;;;;;;17.35;7.88;;;;;;;19.57;77.60;94334.34;5069090;28;20218;-75
2023/07/25 03:22:08;;;;;;;14.85;7.50;;;;;;;19.60;77.04;94328.09;5068727;28;20283;-75
2023/07/25 03:24:37;;;;;;;13.18;7.68;;;;;;;19.58;77.02;94327.69;5069406;28;20213;-75
2023/07/25 03:27:04;;;;;;;13.45;7.00;;;;;;;19.79;76.07;94332.41;5068353;28;20214;-76
2023/07/25 03:29:31;;;;;;;15.32;8.25;;;;;;;20.02;74.44;94340.25;5069182;28;20211;-75
2023/07/25 03:31:58;;;;;;;20.95;7.88;;;;;;;20.21;74.26;94332.38;5068821;28;20604;-76
2023/07/25 03:34:24;;;;;;;14.63;7.53;;;;;;;20.40;73.67;94333.91;5068886;28;20670;-75
2023/07/25 03:36:51;;;;;;;13.95;7.65;;;;;;;20.64;72.94;94337.00;5068921;28;20517;-75
2023/07/25 03:39:18;;;;;;;18.60;7.85;;;;;;;20.68;72.17;94337.75;5076733;28;20241;-76
2023/07/25 03:41:46;;;;;;;15.00;7.22;;;;;;;20.99;71.29;94333.31;5075031;28;20243;-76
2023/07/25 03:44:16;;;;;;;16.23;8.00;;;;;;;21.08;70.53;94334.44;5069279;28;20206;-79
2023/07/25 03:46:43;;;;;;;25.55;8.13;;;;;;;20.92;71.58;94342.38;5069363;28;20199;-80
2023/07/25 03:49:10;;;;;;;12.52;6.90;;;;;;;21.36;68.61;94333.50;5069039;28;20206;-79
2023/07/25 03:51:37;;;;;;;13.77;7.47;;;;;;;21.83;68.12;94322.94;5069809;28;20204;-80
2023/07/25 03:54:04;;;;;;;13.88;6.60;;;;;;;22.20;64.73;94319.47;5069190;28;20357;-79
2023/07/25 03:56:31;;;;;;;20.83;8.63;;;;;;;22.88;65.14;94320.31;5069058;28;20301;-79
2023/07/25 03:58:59;;;;;;;14.10;6.75;;;;;;;22.88;62.35;94325.06;5069176;28;20207;-79
2023/07/25 04:01:26;;;;;;;15.95;8.88;;;;;;;23.61;61.71;94307.91;5070531;28;20229;-79
2023/07/25 04:03:53;;;;;;;24.42;8.52;;;;;;;24.22;60.73;94304.88;5068862;28;20260;-79
2023/07/25 04:06:20;;;;;;;15.60;7.50;;;;;;;24.23;60.60;94300.94;5068945;28;20210;-79
2023/07/25 04:08:47;;;;;;;17.42;7.88;;;;;;;23.87;60.73;94304.31;5068689;28;20806;-78
2023/07/25 04:11:14;;;;;;;12.80;7.38;;;;;;;24.20;59.65;94301.75;5069160;28;20555;-82
2023/07/25 04:13:41;;;;;;;17.35;8.38;;;;;;;24.74;57.60;94311.44;5069354;28;20283;-80
2023/07/25 04:16:09;;;;;;;18.90;7.93;;;;;;;25.64;55.38;94315.91;5068841;28;20760;-80
2023/07/25 04:18:36;;;;;;;19.40;10.15;;;;;;;25.93;55.20;94314.03;5069220;28;20199;-80
2023/07/25 04:21:03;;;;;;;19.13;10.45;;;;;;;26.58;53.19;94313.97;5068547;28;20227;-79
2023/07/25 04:23:30;;;;;;;22.23;10.60;;;;;;;26.72;49.07;94324.69;5069262;28;20222;-79
2023/07/25 04:25:56;;;;;;;17.33;10.82;;;;;;;27.17;50.93;94327.44;5069083;28;20285;-80
2023/07/25 04:28:23;;;;;;;18.25;10.20;;;;;;;28.04;50.80;94329.94;5068770;28;20202;-79
2023/07/25 04:30:50;;;;;;;19.85;10.32;;;;;;;28.63;48.80;94322.81;5069023;28;20211;-79
2023/07/25 04:33:18;;;;;;;20.00;10.48;;;;;;;28.95;47.80;94319.72;5068537;28;20297;-79
2023/07/25 04:35:45;;;;;;;16.55;9.45;;;;;;;28.98;47.62;94316.00;5069075;28;20315;-79
2023/07/25 04:38:12;;;;;;;16.33;10.43;;;;;;;29.78;44.83;94314.63;5081323;28;20661;-79
2023/07/25 04:40:39;;;;;;;20.77;10.93;;;;;;;29.86;44.67;94310.31;5073805;28;20199;-80
2023/07/25 04:43:06;;;;;;;17.65;10.73;;;;;;;29.81;44.71;94299.72;5072497;28;20222;-79
2023/07/25 04:45:32;;;;;;;20.08;10.88;;;;;;;30.13;43.80;94310.41;5072135;28;20203;-80
2023/07/25 04:47:59;;;;;;;16.30;10.45;;;;;;;30.45;43.54;94299.94;5071594;28;20960;-79
2023/07/25 04:50:27;;;;;;;20.63;11.60;;;;;;;30.04;43.73;94296.44;5072125;28;20195;-80
2023/07/25 04:52:54;;;;;;;18.50;11.18;;;;;;;30.65;41.47;94300.28;5072098;28;20199;-79
2023/07/25 04:55:21;;;;;;;16.63;10.43;;;;;;;30.66;42.00;94293.44;5085835;28;20692;-80
2023/07/25 04:57:49;;;;;;;15.93;10.23;;;;;;;30.96;41.39;94295.31;5072482;28;20203;-80
2023/07/25 05:00:17;;;;;;;21.15;10.75;;;;;;;31.71;39.90;94289.88;5062442;28;20264;-79
2023/07/25 05:02:44;;;;;;;18.15;10.88;;;;;;;31.46;40.37;94284.66;5071244;28;20230;-79
2023/07/25 05:05:11;;;;;;;18.60;10.68;;;;;;;31.52;40.46;94285.56;5072150;28;20288;-79
2023/07/25 05:07:39;;;;;;;18.80;10.82;;;;;;;32.69;38.31;94284.66;5085646;28;20610;-80
2023/07/25 05:10:07;;;;;;;20.35;10.93;;;;;;;33.21;37.19;94279.59;5079310;28;20347;-79
2023/07/25 05:12:34;;;;;;;14.60;9.25;;;;;;;33.40;34.18;94280.97;5077527;28;20211;-80
2023/07/25 05:15:00;;;;;;;19.50;11.30;;;;;;;34.49;35.13;94279.63;5071887;28;20731;-80
2023/07/25 05:17:27;;;;;;;25.85;10.57;;;;;;;34.42;34.82;94268.03;5072013;28;20257;-80
2023/07/25 05:19:54;;;;;;;19.63;10.88;;;;;;;34.59;34.23;94269.75;5072063;28;20199;-80
2023/07/25 05:22:21;;;;;;;18.10;11.73;;;;;;;34.32;35.16;94277.84;5071264;28;20369;-75
2023/07/25 05:24:49;;;;;;;20.05;12.43;;;;;;;34.43;35.19;94281.59;5071717;28;20243;-77
2023/07/25 05:27:16;;;;;;;20.38;11.43;;;;;;;34.02;35.51;94279.97;5071329;28;20203;-77
2023/07/25 05:29:43;;;;;;;19.48;10.73;;;;;;;34.65;34.98;94280.31;5071723;28;20209;-77
2023/07/25 05:32:10;;;;;;;20.02;10.48;;;;;;;34.02;35.63;94285.59;5071011;28;20313;-77
2023/07/25 05:34:37;;;;;;;18.48;10.73;;;;;;;33.88;35.68;94290.75;5071781;28;20561;-77
2023/07/25 05:37:03;;;;;;;21.95;11.18;;;;;;;34.19;35.64;94292.22;5071213;28;20234;-78
2023/07/25 05:39:30;;;;;;;19.67;11.25;;;;;;;34.07;35.00;94287.69;5071379;28;20202;-78
2023/07/25 05:41:59;;;;;;;15.93;10.20;;;;;;;34.06;34.99;94286.13;5071497;28;20667;-76
2023/07/25 05:44:25;;;;;;;17.83;11.05;;;;;;;34.54;34.94;94292.22;5071456;28;20207;-76
2023/07/25 05:46:52;;;;;;;15.68;9.90;;;;;;;34.89;34.58;94289.34;5057333;28;20296;-79
2023/07/25 05:49:19;;;;;;;18.10;10.25;;;;;;;35.27;33.32;94282.59;5071080;28;20272;-76
2023/07/25 05:51:46;;;;;;;17.88;10.43;;;;;;;33.84;35.50;94281.72;5070938;28;20198;-77
2023/07/25 05:54:15;;;;;;;18.75;9.82;;;;;;;33.60;35.97;94286.69;5071046;28;20593;-78
2023/07/25 05:56:41;;;;;;;18.80;11.13;;;;;;;34.79;34.55;94273.88;5071204;28;20264;-78
2023/07/25 05:59:10;;;;;;;16.80;10.07;;;;;;;35.44;33.52;94272.28;5070768;28;20249;-79
2023/07/25 06:01:39;;;;;;;20.70;9.25;;;;;;;35.58;32.62;94276.25;5072633;28;20769;-77
2023/07/25 06:04:05;;;;;;;26.42;10.05;;;;;;;35.04;34.13;94280.81;5070442;28;20290;-77
2023/07/25 06:06:37;;;;;;;16.90;9.15;;;;;;;34.78;34.12;94280.78;5070282;28;20539;-80
2023/07/25 06:09:04;;;;;;;16.85;9.90;;;;;;;33.11;37.65;94274.03;5069559;28;20237;-79
2023/07/25 06:11:30;;;;;;;19.08;9.45;;;;;;;33.91;35.35;94274.16;5069463;28;20207;-79
2023/07/25 06:13:57;;;;;;;15.57;10.18;;;;;;;33.68;36.30;94262.53;5070071;28;20208;-79
2023/07/25 06:16:25;;;;;;;22.48;10.13;;;;;;;34.48;35.02;94261.19;5070357;28;20210;-79
2023/07/25 06:18:52;;;;;;;16.48;9.50;;;;;;;34.59;35.13;94255.69;5070774;28;20256;-79
2023/07/25 06:21:19;;;;;;;16.13;9.52;;;;;;;34.81;34.41;94262.91;5070432;28;20238;-78
2023/07/25 06:23:46;;;;;;;16.30;9.35;;;;;;;35.05;34.15;94254.97;5070559;28;20562;-78
2023/07/25 06:26:13;;;;;;;16.40;9.23;;;;;;;34.59;34.26;94255.69;5070559;28;20207;-79
2023/07/25 06:28:41;;;;;;;16.30;9.05;;;;;;;34.24;36.08;94246.53;5070157;28;20600;-79
2023/07/25 06:31:08;;;;;;;15.70;9.20;;;;;;;35.72;33.46;94232.28;5056604;28;20727;-78
2023/07/25 06:33:36;;;;;;;28.42;9.07;;;;;;;35.35;33.11;94237.88;5068417;28;20203;-79
2023/07/25 06:36:03;;;;;;;17.83;8.98;;;;;;;36.01;31.97;94228.41;5069459;28;20562;-78
2023/07/25 06:38:30;;;;;;;21.35;10.20;;;;;;;35.40;32.66;94226.63;5070490;28;20267;-78
2023/07/25 06:40:58;;;;;;;16.55;9.65;;;;;;;34.95;33.04;94225.44;5072099;28;20272;-79
2023/07/25 06:43:24;;;;;;;16.60;9.80;;;;;;;35.78;32.19;94216.22;5069129;28;20341;-79
2023/07/25 06:45:52;;;;;;;18.92;10.55;;;;;;;35.80;32.88;94220.09;5069713;28;20199;-78
2023/07/25 06:48:19;;;;;;;18.00;10.68;;;;;;;35.11;33.05;94224.84;5066776;28;20596;-78
2023/07/25 06:50:48;;;;;;;16.55;10.10;;;;;;;35.25;33.47;94215.50;5069044;28;20202;-79
2023/07/25 06:53:15;;;;;;;17.27;10.50;;;;;;;35.44;33.01;94226.41;5068937;28;20225;-79
2023/07/25 06:55:41;;;;;;;19.15;10.73;;;;;;;35.74;32.43;94216.41;5068634;28;20195;-78
2023/07/25 06:58:08;;;;;;;17.05;10.82;;;;;;;35.88;31.70;94215.50;5069225;28;20265;-78
2023/07/25 07:00:37;;;;;;;22.58;11.20;;;;;;;35.44;33.17;94221.56;5069399;28;20218;-79
2023/07/25 07:03:04;;;;;;;21.15;11.55;;;;;;;34.22;34.26;94232.16;5065523;28;20793;-75
2023/07/25 07:05:31;;;;;;;17.40;11.32;;;;;;;34.17;34.46;94221.59;5069086;28;20881;-78
2023/07/25 07:08:00;;;;;;;17.42;10.55;;;;;;;35.20;33.11;94232.31;5069411;28;20653;-80
2023/07/25 07:10:27;;;;;;;18.00;11.82;;;;;;;35.56;32.79;94228.06;5069090;28;20199;-79
2023/07/25 07:12:53;;;;;;;21.35;12.80;;;;;;;35.71;32.97;94220.22;5070618;28;20256;-79
2023/07/25 07:15:23;;;;;;;17.75;11.43;;;;;;;34.39;34.13;94230.38;5068587;28;20203;-75
2023/07/25 07:17:51;;;;;;;22.20;12.38;;;;;;;33.14;36.11;94225.34;5069155;28;20286;-78
2023/07/25 07:20:18;;;;;;;20.92;13.15;;;;;;;33.22;36.44;94233.38;5068490;28;20226;-79
2023/07/25 07:22:44;;;;;;;19.58;12.15;;;;;;;33.61;35.80;94228.44;5069270;28;20219;-78
2023/07/25 07:25:13;;;;;;;21.77;12.32;;;;;;;34.88;33.88;94217.41;5068952;28;20227;-78
2023/07/25 07:27:40;;;;;;;19.52;11.65;;;;;;;34.77;33.66;94220.88;5068547;28;20187;-77
2023/07/25 07:30:08;;;;;;;17.75;12.20;;;;;;;35.60;32.47;94203.25;5067968;28;20257;-79
2023/07/25 07:32:34;;;;;;;23.55;12.32;;;;;;;36.43;31.95;94208.66;5068663;28;20705;-79
2023/07/25 07:35:01;;;;;;;21.15;11.50;;;;;;;36.57;31.14;94199.22;5069606;28;20306;-76
2023/07/25 07:37:28;;;;;;;18.10;11.25;;;;;;;36.40;31.65;94204.03;5069437;28;20614;-76
2023/07/25 07:39:54;;;;;;;19.00;11.23;;;;;;;36.81;30.58;94214.97;5068664;28;20696;-77
2023/07/25 07:42:23;;;;;;;22.42;11.50;;;;;;;36.74;30.08;94207.00;5068879;28;20222;-76
2023/07/25 07:44:49;;;;;;;21.27;12.70;;;;;;;37.21;29.86;94197.63;5068829;28;20195;-77
2023/07/25 07:47:16;;;;;;;18.30;12.27;;;;;;;37.36;30.02;94200.97;5068442;28;20219;-78
2023/07/25 07:49:43;;;;;;;21.83;11.93;;;;;;;36.99;30.24;94198.34;5068512;28;20463;-77
2023/07/25 07:52:10;;;;;;;20.27;12.10;;;;;;;35.24;32.17;94202.69;5068551;28;20244;-77
2023/07/25 07:54:37;;;;;;;21.63;11.60;;;;;;;35.91;31.79;94197.59;5068377;28;20199;-76
2023/07/25 07:57:04;;;;;;;18.40;11.93;;;;;;;33.56;34.80;94204.63;5068349;28;20225;-77
2023/07/25 07:59:32;;;;;;;24.20;11.68;;;;;;;35.16;32.87;94189.53;5070322;28;20188;-77
2023/07/25 08:01:59;;;;;;;16.95;11.10;;;;;;;35.83;31.61;94185.22;5068401;28;20288;-77
2023/07/25 08:04:26;;;;;;;18.80;10.65;;;;;;;35.11;32.35;94188.22;5068113;28;20658;-77
2023/07/25 08:06:52;;;;;;;21.50;11.23;;;;;;;35.18;31.90;94184.16;5068501;28;20195;-76
2023/07/25 08:09:19;;;;;;;17.92;10.02;;;;;;;34.61;33.20;94189.69;5068152;28;20884;-76
2023/07/25 08:11:46;;;;;;;14.38;9.43;;;;;;;35.13;31.19;94171.56;5069131;28;20199;-77
2023/07/25 08:14:13;;;;;;;17.13;10.05;;;;;;;35.92;31.32;94176.59;5071100;28;20198;-78
2023/07/25 08:16:41;;;;;;;18.25;10.73;;;;;;;35.31;31.19;94166.88;5073321;28;20194;-78
2023/07/25 08:19:07;;;;;;;15.80;10.43;;;;;;;35.18;31.76;94164.44;5072390;28;20642;-78
2023/07/25 08:21:34;;;;;;;20.02;10.48;;;;;;;34.29;32.80;94178.34;5072530;28;20248;-78
2023/07/25 08:24:01;;;;;;;17.25;10.55;;;;;;;33.49;33.84;94176.91;5072144;28;20226;-77
2023/07/25 08:26:28;;;;;;;16.98;9.98;;;;;;;34.36;33.21;94185.59;5072849;28;20271;-79
2023/07/25 08:28:55;;;;;;;19.25;11.30;;;;;;;34.01;33.22;94177.19;5072125;28;20195;-78
2023/07/25 08:31:21;;;;;;;20.67;10.80;;;;;;;34.99;33.35;94175.28;5071555;28;20215;-78
2023/07/25 08:33:49;;;;;;;17.48;10.38;;;;;;;34.66;32.33;94170.06;5069730;28;20203;-78
2023/07/25 08:36:16;;;;;;;16.55;10.43;;;;;;;34.89;32.66;94159.84;5071878;28;20658;-77
2023/07/25 08:38:43;;;;;;;19.27;10.57;;;;;;;34.72;31.96;94161.66;5071800;28;20203;-78
2023/07/25 08:41:11;;;;;;;16.70;10.60;;;;;;;34.97;31.84;94155.31;5069564;28;20195;-78
2023/07/25 08:43:40;;;;;;;18.63;10.15;;;;;;;34.34;32.73;94154.34;5072050;28;20244;-77
2023/07/25 08:46:09;;;;;;;19.05;10.95;;;;;;;33.91;32.92;94150.47;5072023;28;20230;-78
2023/07/25 08:48:38;;;;;;;18.77;10.73;;;;;;;34.66;32.48;94147.56;5071343;28;20291;-76
2023/07/25 08:51:07;;;;;;;17.27;10.15;;;;;;;34.43;32.25;94146.56;5073949;28;20670;-77
2023/07/25 08:53:38;;;;;;;15.88;10.35;;;;;;;34.07;32.52;94141.47;5071877;28;20280;-80
2023/07/25 08:56:05;;;;;;;16.25;9.73;;;;;;;33.41;33.27;94147.69;5069117;28;20589;-76
2023/07/25 08:58:32;;;;;;;19.08;9.70;;;;;;;33.61;32.83;94144.94;5071077;28;20202;-76
2023/07/25 09:01:00;;;;;;;15.45;9.77;;;;;;;33.24;33.34;94146.63;5072070;28;20219;-77
2023/07/25 09:03:27;;;;;;;16.85;9.55;;;;;;;33.89;32.31;94137.66;5071526;28;20222;-76
2023/07/25 09:05:58;;;;;;;16.52;9.75;;;;;;;34.87;32.10;94145.47;5070970;28;20199;-78
2023/07/25 09:08:26;;;;;;;18.17;9.60;;;;;;;34.93;31.36;94135.81;5068570;28;20187;-77
2023/07/25 09:10:54;;;;;;;18.15;9.75;;;;;;;34.80;31.17;94129.81;5071438;28;20191;-77
2023/07/25 09:13:21;;;;;;;19.63;9.25;;;;;;;34.73;31.51;94123.81;5071447;28;20195;-77
2023/07/25 09:15:47;;;;;;;18.92;9.55;;;;;;;34.42;32.80;94128.13;5071677;28;20195;-76
2023/07/25 09:18:14;;;;;;;14.50;9.07;;;;;;;34.80;31.63;94123.41;5071493;28;20195;-77
2023/07/25 09:20:41;;;;;;;18.08;9.45;;;;;;;34.55;31.67;94119.31;5071688;28;20252;-77
2023/07/25 09:23:08;;;;;;;15.77;9.65;;;;;;;34.17;32.23;94120.38;5070475;28;20320;-78
2023/07/25 09:25:36;;;;;;;18.15;10.05;;;;;;;34.85;31.67;94103.75;5069823;28;20280;-78
2023/07/25 09:28:06;;;;;;;20.10;9.75;;;;;;;34.98;31.79;94109.00;5070974;28;20254;-78
2023/07/25 09:30:33;;;;;;;19.15;9.13;;;;;;;34.98;31.54;94108.22;5070924;28;20651;-78
2023/07/25 09:33:00;;;;;;;15.00;9.45;;;;;;;34.34;32.86;94101.69;5071274;28;20314;-78
2023/07/25 09:35:27;;;;;;;17.55;9.73;;;;;;;34.10;33.86;94113.16;5071725;28;20210;-77
2023/07/25 09:37:55;;;;;;;15.68;9.45;;;;;;;34.39;32.51;94105.81;5070976;28;20195;-75
2023/07/25 09:40:22;;;;;;;13.45;8.80;;;;;;;33.88;33.21;94113.66;5069354;28;20226;-77
2023/07/25 09:42:51;;;;;;;16.40;10.13;;;;;;;33.88;33.51;94102.41;5069168;28;20219;-77
2023/07/25 09:45:18;;;;;;;14.60;9.32;;;;;;;34.25;33.08;94110.25;5068612;28;20202;-78
2023/07/25 09:47:45;;;;;;;14.55;8.77;;;;;;;33.52;33.77;94111.31;5070057;28;20281;-78
2023/07/25 09:50:12;;;;;;;15.68;8.35;;;;;;;33.40;34.04;94104.00;5071095;28;20202;-75
2023/07/25 09:52:40;;;;;;;16.60;8.90;;;;;;;33.89;33.01;94092.69;5071112;28;20199;-77
2023/07/25 09:55:07;;;;;;;15.10;9.13;;;;;;;34.40;33.37;94091.28;5070551;28;20306;-77
2023/07/25 09:57:35;;;;;;;15.95;9.35;;;;;;;34.57;31.84;94103.47;5079047;28;20206;-78
2023/07/25 10:00:05;;;;;;;16.40;8.27;;;;;;;34.03;32.05;94110.75;5076122;28;20325;-79
2023/07/25 10:02:33;;;;;;;18.50;9.38;;;;;;;34.38;31.98;94096.63;5069932;28;20242;-77
2023/07/25 10:05:01;;;;;;;17.45;8.60;;;;;;;34.98;31.54;94092.09;5070516;28;20658;-77
2023/07/25 10:07:28;;;;;;;14.65;8.63;;;;;;;35.48;31.87;94091.72;5070710;28;20196;-78
2023/07/25 10:09:57;;;;;;;17.35;9.02;;;;;;;35.34;31.76;94075.75;5069984;28;20681;-78
2023/07/25 10:12:24;;;;;;;16.40;9.13;;;;;;;35.86;31.94;94070.66;5070656;28;20206;-77
2023/07/25 10:14:51;;;;;;;18.05;8.75;;;;;;;35.30;31.63;94070.31;5070317;28;20191;-79
2023/07/25 10:17:19;;;;;;;17.45;9.30;;;;;;;35.14;31.44;94046.38;5070613;28;20207;-78
2023/07/25 10:19:51;;;;;;;15.27;8.65;;;;;;;35.66;31.44;94056.72;5070167;28;20651;-77
2023/07/25 10:22:36;;;;;;;12.70;8.10;;;;;;;35.85;31.23;94052.97;5070148;28;20198;-77
2023/07/25 10:25:03;;;;;;;15.50;8.40;;;;;;;36.21;30.86;94037.22;5065776;28;20646;-77
2023/07/25 10:27:30;;;;;;;19.10;9.20;;;;;;;34.96;32.83;94041.13;5067189;28;20739;-78
2023/07/25 10:30:01;;;;;;;19.05;9.20;;;;;;;35.34;32.78;94039.09;5066422;28;20203;-78
2023/07/25 10:32:44;;;;;;;16.58;9.40;;;;;;;35.12;32.12;94039.72;5065836;28;20321;-79
2023/07/25 10:35:11;;;;;;;17.50;8.88;;;;;;;35.60;31.90;94025.66;5068501;28;20191;-78
2023/07/25 10:37:45;;;;;;;16.48;10.23;;;;;;;35.98;31.95;94022.25;5066590;28;20357;-75
2023/07/25 10:40:14;;;;;;;15.90;8.70;;;;;;;35.57;31.82;94024.63;5065808;28;20194;-78
2023/07/25 10:42:51;;;;;;;14.90;8.48;;;;;;;35.61;31.26;94004.66;5067562;28;20227;-77
2023/07/25 10:45:39;;;;;;;17.42;8.40;;;;;;;35.37;32.25;94001.47;5067679;28;20208;-77
2023/07/25 10:48:30;;;;;;;13.90;9.25;;;;;;;34.75;33.13;93997.44;5059305;28;20203;-78
2023/07/25 10:50:58;;;;;;;18.90;9.07;;;;;;;35.49;32.82;93994.63;5067466;28;20609;-76
2023/07/25 10:53:25;;;;;;;14.07;8.00;;;;;;;35.51;31.71;93989.25;5062354;28;20214;-76
2023/07/25 10:56:13;;;;;;;16.33;7.85;;;;;;;35.50;31.25;93987.72;5061952;28;20234;-78
2023/07/25 10:58:55;;;;;;;17.40;9.35;;;;;;;36.19;31.86;93991.03;5049382;28;20199;-77
2023/07/25 11:01:33;;;;;;;14.90;8.63;;;;;;;35.84;31.18;93980.94;5071411;28;20260;-77
2023/07/25 11:04:26;;;;;;;16.52;8.85;;;;;;;35.82;31.27;93969.41;5069195;28;20228;-77
2023/07/25 11:06:54;;;;;;;15.40;8.65;;;;;;;35.41;31.35;93968.97;5067885;28;20248;-78
2023/07/25 11:09:21;;;;;;;13.93;7.85;;;;;;;35.66;31.25;93949.59;5068324;28;20209;-77
2023/07/25 11:11:50;;;;;;;16.55;8.45;;;;;;;36.02;30.96;93959.19;5067683;28;20658;-77
2023/07/25 11:14:18;;;;;;;17.95;8.40;;;;;;;36.36;31.01;93955.16;5073276;28;20211;-77
2023/07/25 11:16:47;;;;;;;13.35;8.57;;;;;;;36.19;30.66;93957.97;5069241;28;20678;-76
2023/07/25 11:19:15;;;;;;;17.65;7.85;;;;;;;35.90;30.88;93953.53;5078307;28;20245;-76
2023/07/25 11:21:45;;;;;;;14.55;8.10;;;;;;;36.24;30.39;93942.31;5069015;28;20206;-77
2023/07/25 11:24:12;;;;;;;16.92;8.10;;;;;;;36.38;30.13;93935.66;5078940;28;20242;-76